createdAt,value
2018-03-20T00:01:00.857Z,45.24
2018-03-20T00:03:27.100Z,45.61
2018-03-20T00:05:53.595Z,46.25
2018-03-20T00:08:19.842Z,46.32
2018-03-20T00:10:46.086Z,45.27
2018-03-20T00:13:12.491Z,45.96
2018-03-20T00:15:38.750Z,45.24
2018-03-20T00:18:05.031Z,46.02
2018-03-20T00:20:31.260Z,45.28
2018-03-20T00:22:57.515Z,46.75
2018-03-20T00:25:23.901Z,47.25
2018-03-20T00:27:50.165Z,47.09
2018-03-20T00:30:16.396Z,47.15
2018-03-20T00:32:42.765Z,46.98
2018-03-20T00:35:09.016Z,46.78
2018-03-20T00:37:35.395Z,46.85
2018-03-20T00:40:01.676Z,46.66
2018-03-20T00:42:27.984Z,47.28
2018-03-20T00:44:54.438Z,47.54
2018-03-20T00:47:20.673Z,47.87
2018-03-20T00:49:46.932Z,48.39
2018-03-20T00:52:13.208Z,47.77
2018-03-20T00:54:39.469Z,48.23
2018-03-20T00:57:05.947Z,48.04
2018-03-20T00:59:32.172Z,46.25
2018-03-20T01:01:58.433Z,45.63
2018-03-20T01:04:24.757Z,45.48
2018-03-20T01:06:51.020Z,45.79
2018-03-20T01:09:17.294Z,45.71
2018-03-20T01:11:43.568Z,45.78
2018-03-20T01:14:09.832Z,45.62
2018-03-20T01:16:36.328Z,45.88
2018-03-20T01:19:02.563Z,46.22
2018-03-20T01:21:28.800Z,47.22
2018-03-20T01:23:55.108Z,46.94
2018-03-20T01:26:21.363Z,45.76
2018-03-20T01:28:47.815Z,46.67
2018-03-20T01:31:14.053Z,47.50
2018-03-20T01:33:40.314Z,47.88
2018-03-20T01:36:06.654Z,48.02
2018-03-20T01:38:32.924Z,47.71
2018-03-20T01:40:59.196Z,48.27
2018-03-20T01:43:25.476Z,48.16
2018-03-20T01:45:51.720Z,48.21
2018-03-20T01:48:18.137Z,48.54
2018-03-20T01:50:44.392Z,48.12
2018-03-20T01:53:17.861Z,47.68
2018-03-20T01:55:44.112Z,47.26
2018-03-20T01:58:10.340Z,46.59
2018-03-20T02:00:36.735Z,47.16
2018-03-20T02:03:02.985Z,47.40
2018-03-20T02:05:29.390Z,46.38
2018-03-20T02:07:55.652Z,47.20
2018-03-20T02:10:21.896Z,46.32
2018-03-20T02:12:48.400Z,46.19
2018-03-20T02:15:14.643Z,46.99
2018-03-20T02:17:40.896Z,48.02
2018-03-20T02:20:07.140Z,48.71
2018-03-20T02:22:33.391Z,47.14
2018-03-20T02:24:59.792Z,46.34
2018-03-20T02:27:26.062Z,46.73
2018-03-20T02:29:52.284Z,47.59
2018-03-20T02:32:18.705Z,46.99
2018-03-20T02:34:44.937Z,46.51
2018-03-20T02:37:11.320Z,46.37
2018-03-20T02:39:37.588Z,46.40
2018-03-20T02:42:03.840Z,46.49
2018-03-20T02:44:30.390Z,47.23
2018-03-20T02:46:56.620Z,47.11
2018-03-20T02:49:22.880Z,47.07
2018-03-20T02:51:49.141Z,47.17
2018-03-20T02:54:15.397Z,47.47
2018-03-20T02:56:41.847Z,47.72
2018-03-20T02:59:08.108Z,47.55
2018-03-20T03:01:34.369Z,47.58
2018-03-20T03:04:00.745Z,48.22
2018-03-20T03:06:27.018Z,48.03
2018-03-20T03:08:53.465Z,47.69
2018-03-20T03:11:19.713Z,47.73
2018-03-20T03:13:45.935Z,47.49
2018-03-20T03:16:12.386Z,47.29
2018-03-20T03:18:38.616Z,47.34
2018-03-20T03:21:04.904Z,47.12
2018-03-20T03:23:31.144Z,47.31
2018-03-20T03:25:57.372Z,47.39
2018-03-20T03:28:23.807Z,46.74
2018-03-20T03:30:50.084Z,46.74
2018-03-20T03:33:16.348Z,46.62
2018-03-20T03:35:42.739Z,46.73
2018-03-20T03:38:08.989Z,46.42
2018-03-20T03:40:35.288Z,46.46
2018-03-20T03:43:01.575Z,46.36
2018-03-20T03:45:27.832Z,46.38
2018-03-20T03:47:54.182Z,46.91
2018-03-20T03:50:20.457Z,46.87
2018-03-20T03:52:46.683Z,46.95
2018-03-20T03:55:12.997Z,47.19
2018-03-20T03:57:39.215Z,47.82
2018-03-20T04:00:05.536Z,48.42
2018-03-20T04:02:31.767Z,49.13
2018-03-20T04:04:58.035Z,48.96
2018-03-20T04:07:24.487Z,47.85
2018-03-20T04:09:50.732Z,47.57
2018-03-20T04:12:16.989Z,47.53
2018-03-20T04:14:43.220Z,47.66
2018-03-20T04:17:09.466Z,47.90
2018-03-20T04:19:35.988Z,47.97
2018-03-20T04:22:02.247Z,47.75
2018-03-20T04:24:28.491Z,47.75
2018-03-20T04:26:54.775Z,47.83
2018-03-20T04:29:21.008Z,47.80
2018-03-20T04:31:47.289Z,47.89
2018-03-20T04:34:13.588Z,47.74
2018-03-20T04:36:39.842Z,47.99
2018-03-20T04:39:06.292Z,47.92
2018-03-20T04:41:32.547Z,47.76
2018-03-20T04:43:58.807Z,47.82
2018-03-20T04:46:25.046Z,47.93
2018-03-20T04:48:51.307Z,48.16
2018-03-20T04:51:17.642Z,48.36
2018-03-20T04:53:43.920Z,48.70
2018-03-20T04:56:10.168Z,49.03
2018-03-20T04:58:36.608Z,48.79
2018-03-20T05:01:02.858Z,48.83
2018-03-20T05:03:29.085Z,48.87
2018-03-20T05:05:55.419Z,49.01
2018-03-20T05:08:21.668Z,48.85
2018-03-20T05:10:48.089Z,48.63
2018-03-20T05:13:14.341Z,49.09
2018-03-20T05:15:40.612Z,48.99
2018-03-20T05:18:06.924Z,48.60
2018-03-20T05:23:37.640Z,49.06
2018-03-20T05:26:03.924Z,49.09
2018-03-20T05:28:30.402Z,49.13
2018-03-20T05:30:56.673Z,49.05
2018-03-20T05:33:23.007Z,48.85
2018-03-20T05:35:49.288Z,48.84
2018-03-20T05:38:15.592Z,48.59
2018-03-20T05:40:42.097Z,48.19
2018-03-20T05:43:08.373Z,47.93
2018-03-20T05:45:34.669Z,47.62
2018-03-20T05:48:06.983Z,47.14
2018-03-20T05:53:29.771Z,46.98
2018-03-20T05:55:56.068Z,46.45
2018-03-20T05:58:22.288Z,45.95
2018-03-20T06:00:48.679Z,45.26
2018-03-20T06:03:14.908Z,44.89
2018-03-20T06:05:41.166Z,44.47
2018-03-20T06:08:07.440Z,44.11
2018-03-20T06:10:33.693Z,43.65
2018-03-20T06:13:00.137Z,43.47
2018-03-20T06:15:26.461Z,43.31
2018-03-20T06:17:52.693Z,42.63
2018-03-20T06:20:18.988Z,42.19
2018-03-20T06:22:45.245Z,41.67
2018-03-20T06:25:11.559Z,41.71
2018-03-20T06:27:37.844Z,41.51
2018-03-20T06:30:04.129Z,41.58
2018-03-20T06:32:30.552Z,41.16
2018-03-20T06:34:56.812Z,41.28
2018-03-20T06:37:23.043Z,40.78
2018-03-20T06:39:49.284Z,40.48
2018-03-20T06:42:15.508Z,40.31
2018-03-20T06:44:41.988Z,40.18
2018-03-20T06:47:08.214Z,39.29
2018-03-20T06:49:34.483Z,39.14
2018-03-20T06:52:00.797Z,38.46
2018-03-20T06:54:27.023Z,38.64
2018-03-20T06:56:53.427Z,37.98
2018-03-20T06:59:19.677Z,37.36
2018-03-20T07:01:45.981Z,37.45
2018-03-20T07:04:12.461Z,36.67
2018-03-20T07:06:38.736Z,36.18
2018-03-20T07:09:05.016Z,35.90
2018-03-20T07:11:31.286Z,35.40
2018-03-20T07:13:57.532Z,35.12
2018-03-20T07:16:23.981Z,34.42
2018-03-20T07:18:50.243Z,33.79
2018-03-20T07:21:16.495Z,33.12
2018-03-20T07:23:42.861Z,32.78
2018-03-20T07:26:09.088Z,32.92
2018-03-20T07:28:35.466Z,32.65
2018-03-20T07:31:01.720Z,32.93
2018-03-20T07:33:27.972Z,32.63
2018-03-20T07:35:54.469Z,32.01
2018-03-20T07:38:20.683Z,31.12
2018-03-20T07:40:46.931Z,30.40
2018-03-20T07:43:13.160Z,30.58
2018-03-20T07:45:39.399Z,29.16
2018-03-20T07:48:05.718Z,28.89
2018-03-20T07:50:31.976Z,28.47
2018-03-20T07:52:58.201Z,28.17
2018-03-20T07:55:24.616Z,26.81
2018-03-20T07:57:50.836Z,25.63
2018-03-20T08:00:17.073Z,25.33
2018-03-20T08:02:43.312Z,24.12
2018-03-20T08:05:09.531Z,23.65
2018-03-20T08:07:35.994Z,22.01
2018-03-20T08:10:02.227Z,21.49
2018-03-20T08:12:28.471Z,20.66
2018-03-20T08:14:54.916Z,19.80
2018-03-20T08:17:21.179Z,20.08
2018-03-20T08:19:47.491Z,21.87
2018-03-20T08:22:13.736Z,21.87
2018-03-20T08:24:40.001Z,21.01
2018-03-20T08:27:06.237Z,20.56
2018-03-20T08:29:32.483Z,21.36
2018-03-20T08:31:58.704Z,22.23
2018-03-20T08:34:24.958Z,23.15
2018-03-20T08:36:51.179Z,23.31
2018-03-20T08:39:17.433Z,23.78
2018-03-20T08:41:43.660Z,24.53
2018-03-20T08:44:09.879Z,24.78
2018-03-20T08:46:36.120Z,25.05
2018-03-20T08:49:02.377Z,25.49
2018-03-20T08:51:28.672Z,26.08
2018-03-20T08:53:54.896Z,25.87
2018-03-20T08:56:21.136Z,26.06
2018-03-20T08:58:47.345Z,26.37
2018-03-20T09:01:13.632Z,26.02
2018-03-20T09:03:39.889Z,26.03
2018-03-20T09:06:06.145Z,25.40
2018-03-20T09:08:32.388Z,25.81
2018-03-20T09:10:58.603Z,25.81
2018-03-20T09:13:24.839Z,25.41
2018-03-20T09:15:51.057Z,25.62
2018-03-20T09:18:17.308Z,26.33
2018-03-20T09:20:43.541Z,26.25
2018-03-20T09:23:09.777Z,26.68
2018-03-20T09:25:36.020Z,27.11
2018-03-20T09:28:02.244Z,26.89
2018-03-20T09:30:28.488Z,27.43
2018-03-20T09:32:54.722Z,27.95
2018-03-20T09:35:20.956Z,28.83
2018-03-20T09:37:47.208Z,29.80
2018-03-20T09:40:13.501Z,29.85
2018-03-20T09:42:39.721Z,29.96
2018-03-20T09:45:05.969Z,29.96
2018-03-20T09:47:32.232Z,29.48
2018-03-20T09:49:58.452Z,30.43
2018-03-20T09:52:24.696Z,30.71
2018-03-20T09:54:50.915Z,30.19
2018-03-20T09:57:17.177Z,30.69
2018-03-20T09:59:43.409Z,30.46
2018-03-20T10:02:09.664Z,31.32
2018-03-20T10:04:35.912Z,31.12
2018-03-20T10:07:02.188Z,30.92
2018-03-20T10:09:28.424Z,31.26
2018-03-20T10:11:54.658Z,31.69
2018-03-20T10:14:20.909Z,31.95
2018-03-20T10:16:47.165Z,31.98
2018-03-20T10:19:13.427Z,31.36
2018-03-20T10:21:39.684Z,32.31
2018-03-20T10:24:05.944Z,31.60
2018-03-20T10:26:32.183Z,31.76
2018-03-20T10:28:58.434Z,31.22
2018-03-20T10:31:24.682Z,31.54
2018-03-20T10:33:50.916Z,31.64
2018-03-20T10:36:17.136Z,31.49
2018-03-20T10:38:43.389Z,31.59
2018-03-20T10:41:09.644Z,32.22
2018-03-20T10:43:35.890Z,32.31
2018-03-20T10:46:02.172Z,32.67
2018-03-20T10:48:28.440Z,32.84
2018-03-20T10:50:54.769Z,33.08
2018-03-20T10:53:20.987Z,33.08
2018-03-20T10:55:47.260Z,32.54
2018-03-20T10:58:13.472Z,32.10
2018-03-20T11:00:45.817Z,31.67
2018-03-20T11:03:12.076Z,31.65
2018-03-20T11:05:38.334Z,31.30
2018-03-20T11:08:04.612Z,31.23
2018-03-20T11:10:30.896Z,30.60
2018-03-20T11:12:57.108Z,30.84
2018-03-20T11:15:23.328Z,31.57
2018-03-20T11:17:49.620Z,32.43
2018-03-20T11:20:15.842Z,32.93
2018-03-20T11:22:42.101Z,32.93
2018-03-20T11:25:08.324Z,33.15
2018-03-20T11:27:34.620Z,33.03
2018-03-20T11:30:00.862Z,33.16
2018-03-20T11:32:27.127Z,32.99
2018-03-20T11:34:53.397Z,33.72
2018-03-20T11:37:19.633Z,33.47
2018-03-20T11:39:45.896Z,33.38
2018-03-20T11:42:12.148Z,33.88
2018-03-20T11:44:38.437Z,33.75
2018-03-20T11:47:04.685Z,34.51
2018-03-20T11:49:31.077Z,36.21
2018-03-20T11:51:57.277Z,37.56
2018-03-20T11:54:23.592Z,38.66
2018-03-20T11:56:49.876Z,39.56
2018-03-20T11:59:16.115Z,40.37
2018-03-20T12:01:42.409Z,41.15
2018-03-20T12:04:08.664Z,41.16
2018-03-20T12:06:35.016Z,41.90
2018-03-20T12:09:13.584Z,42.53
2018-03-20T12:11:39.841Z,44.36
2018-03-20T12:14:06.072Z,45.20
2018-03-20T12:16:32.328Z,45.12
2018-03-20T12:18:58.575Z,46.61
2018-03-20T12:21:24.812Z,47.58
2018-03-20T12:23:51.063Z,48.44
2018-03-20T12:26:17.289Z,49.47
2018-03-20T12:28:43.544Z,50.26
2018-03-20T12:31:09.773Z,49.77
2018-03-20T12:33:36.064Z,50.80
2018-03-20T12:36:02.324Z,52.14
2018-03-20T12:38:28.567Z,52.36
2018-03-20T12:40:54.828Z,53.31
2018-03-20T12:43:21.047Z,53.41
2018-03-20T12:45:47.287Z,53.50
2018-03-20T12:48:13.515Z,52.72
2018-03-20T12:50:39.765Z,53.78
2018-03-20T12:53:06.036Z,53.75
2018-03-20T12:55:32.296Z,54.89
2018-03-20T12:57:58.602Z,54.48
2018-03-20T13:00:24.855Z,54.80
2018-03-20T13:02:51.112Z,55.68
2018-03-20T13:05:17.349Z,57.24
2018-03-20T13:07:43.601Z,57.95
2018-03-20T13:10:09.834Z,58.95
2018-03-20T13:12:36.106Z,59.73
2018-03-20T13:15:02.365Z,58.36
2018-03-20T13:17:28.603Z,58.25
2018-03-20T13:19:54.851Z,58.60
2018-03-20T13:22:21.100Z,58.65
2018-03-20T13:24:47.347Z,58.50
2018-03-20T13:27:13.581Z,57.77
2018-03-20T13:29:39.833Z,57.64
2018-03-20T13:32:06.068Z,57.93
2018-03-20T13:34:32.308Z,58.37
2018-03-20T13:36:58.558Z,58.33
2018-03-20T13:39:25.006Z,58.03
2018-03-20T13:41:51.420Z,57.75
2018-03-20T13:44:17.652Z,57.57
2018-03-20T13:46:43.901Z,58.77
2018-03-20T13:49:10.190Z,60.03
2018-03-20T13:51:36.424Z,60.55
2018-03-20T13:54:02.700Z,60.57
2018-03-20T13:56:29.005Z,60.86
2018-03-20T13:58:55.500Z,61.25
2018-03-20T14:01:21.764Z,61.75
2018-03-20T14:03:47.988Z,61.64
2018-03-20T14:06:14.933Z,62.58
2018-03-20T14:08:41.260Z,62.59
2018-03-20T14:11:07.492Z,62.98
2018-03-20T14:13:33.764Z,63.03
2018-03-20T14:15:59.985Z,62.40
2018-03-20T14:18:26.263Z,62.59
2018-03-20T14:20:52.480Z,62.31
2018-03-20T14:23:18.769Z,62.37
2018-03-20T14:25:45.000Z,62.46
2018-03-20T14:28:11.247Z,61.58
2018-03-20T14:30:37.480Z,61.88
2018-03-20T14:33:03.728Z,61.94
2018-03-20T14:35:29.996Z,62.00
2018-03-20T14:37:56.229Z,61.78
2018-03-20T14:40:22.516Z,62.07
2018-03-20T14:42:48.739Z,62.05
2018-03-20T14:45:15.035Z,62.61
2018-03-20T14:47:41.265Z,62.36
2018-03-20T14:50:07.492Z,62.77
2018-03-20T14:52:33.748Z,62.96
2018-03-20T14:54:59.979Z,62.72
2018-03-20T14:57:26.232Z,62.55
2018-03-20T14:59:52.481Z,62.68
2018-03-20T15:02:18.741Z,62.90
2018-03-20T15:04:44.984Z,63.35
2018-03-20T15:07:11.240Z,63.63
2018-03-20T15:09:37.476Z,63.79
2018-03-20T15:12:03.721Z,63.17
2018-03-20T15:14:30.032Z,63.02
2018-03-20T15:16:56.268Z,63.28
2018-03-20T15:19:22.517Z,63.34
2018-03-20T15:21:48.748Z,63.25
2018-03-20T15:24:15.160Z,63.28
2018-03-20T15:26:41.392Z,63.77
2018-03-20T15:29:07.691Z,63.39
2018-03-20T15:31:33.943Z,63.59
2018-03-20T15:34:00.230Z,63.62
2018-03-20T15:36:26.484Z,63.53
2018-03-20T15:38:52.708Z,63.50
2018-03-20T15:41:18.973Z,63.35
2018-03-20T15:43:45.200Z,63.55
2018-03-20T15:46:11.508Z,63.49
2018-03-20T15:48:37.731Z,63.64
2018-03-20T15:51:04.005Z,63.19
2018-03-20T15:53:30.236Z,63.73
2018-03-20T15:55:56.600Z,63.51
2018-03-20T15:58:22.872Z,63.81
2018-03-20T16:00:49.115Z,63.87
2018-03-20T16:03:15.379Z,63.75
2018-03-20T16:05:41.624Z,63.62
2018-03-20T16:08:07.873Z,63.94
2018-03-20T16:10:34.107Z,63.96
2018-03-20T16:13:00.351Z,63.71
2018-03-20T16:15:26.849Z,63.58
2018-03-20T16:17:53.108Z,63.21
2018-03-20T16:20:19.460Z,63.73
2018-03-20T16:22:45.716Z,63.33
2018-03-20T16:25:11.996Z,64.04
2018-03-20T16:27:38.288Z,64.55
2018-03-20T16:30:04.585Z,65.04
2018-03-20T16:32:30.861Z,64.67
2018-03-20T16:34:57.299Z,64.87
2018-03-20T16:37:23.589Z,64.78
2018-03-20T16:39:49.829Z,64.42
2018-03-20T16:42:16.108Z,66.03
2018-03-20T16:44:42.348Z,65.16
2018-03-20T16:47:08.635Z,63.96
2018-03-20T16:49:34.883Z,64.37
2018-03-20T16:52:01.201Z,64.43
2018-03-20T16:54:27.432Z,64.60
2018-03-20T16:56:53.668Z,64.64
2018-03-20T16:59:19.995Z,64.85
2018-03-20T17:01:46.182Z,65.38
2018-03-20T17:04:12.445Z,65.25
2018-03-20T17:06:38.700Z,65.64
2018-03-20T17:09:05.164Z,65.98
2018-03-20T17:11:31.416Z,66.13
2018-03-20T17:13:57.675Z,66.19
2018-03-20T17:16:23.912Z,66.55
2018-03-20T17:18:50.190Z,66.54
2018-03-20T17:21:16.428Z,66.39
2018-03-20T17:23:42.662Z,66.71
2018-03-20T17:26:08.928Z,66.28
2018-03-20T17:28:35.157Z,67.13
2018-03-20T17:31:01.492Z,67.07
2018-03-20T17:33:27.684Z,67.17
2018-03-20T17:35:53.973Z,67.37
2018-03-20T17:38:20.209Z,66.98
2018-03-20T17:40:46.467Z,66.80
2018-03-20T17:43:14.366Z,66.85
2018-03-20T17:45:40.596Z,67.36
2018-03-20T17:48:07.024Z,67.49
2018-03-20T17:50:33.615Z,67.25
2018-03-20T17:52:59.940Z,67.47
2018-03-20T17:55:26.171Z,67.88
2018-03-20T17:57:52.431Z,68.00
2018-03-20T18:00:18.740Z,67.66
2018-03-20T18:02:44.992Z,67.99
2018-03-20T18:05:11.283Z,68.09
2018-03-20T18:07:37.537Z,67.89
2018-03-20T18:10:03.823Z,67.97
2018-03-20T18:12:30.064Z,68.29
2018-03-20T18:14:56.328Z,68.30
2018-03-20T18:17:22.684Z,68.68
2018-03-20T18:19:48.948Z,68.42
2018-03-20T18:22:15.181Z,68.35
2018-03-20T18:24:41.469Z,68.47
2018-03-20T18:27:07.752Z,68.20
2018-03-20T18:29:33.992Z,68.38
2018-03-20T18:32:00.300Z,68.35
2018-03-20T18:34:26.549Z,68.53
2018-03-20T18:36:52.830Z,68.46
2018-03-20T18:39:19.084Z,68.82
2018-03-20T18:41:45.371Z,68.68
2018-03-20T18:44:11.613Z,68.52
2018-03-20T18:46:37.851Z,68.36
2018-03-20T18:49:04.149Z,68.83
2018-03-20T18:51:30.372Z,69.16
2018-03-20T18:53:56.631Z,69.58
2018-03-20T18:56:22.867Z,69.66
2018-03-20T18:58:49.121Z,69.36
2018-03-20T19:01:15.348Z,69.63
2018-03-20T19:03:41.633Z,69.75
2018-03-20T19:06:07.859Z,69.51
2018-03-20T19:08:34.104Z,69.34
2018-03-20T19:11:00.366Z,69.21
2018-03-20T19:13:26.592Z,69.09
2018-03-20T19:15:52.864Z,68.97
2018-03-20T19:18:19.108Z,68.87
2018-03-20T19:20:45.367Z,69.14
2018-03-20T19:23:11.625Z,69.05
2018-03-20T19:25:37.934Z,68.89
2018-03-20T19:28:04.185Z,68.97
2018-03-20T19:30:30.467Z,68.94
2018-03-20T19:32:56.733Z,69.30
2018-03-20T19:35:22.976Z,69.10
2018-03-20T19:37:49.260Z,69.38
2018-03-20T19:40:15.551Z,69.19
2018-03-20T19:42:41.819Z,69.15
2018-03-20T19:45:08.061Z,69.35
2018-03-20T19:47:34.415Z,69.63
2018-03-20T19:50:00.652Z,69.50
2018-03-20T19:52:26.908Z,69.52
2018-03-20T19:54:53.136Z,69.63
2018-03-20T19:57:19.426Z,69.20
2018-03-20T19:59:45.717Z,69.52
2018-03-20T20:02:11.988Z,69.96
2018-03-20T20:04:38.281Z,69.75
2018-03-20T20:07:04.515Z,69.57
2018-03-20T20:09:30.783Z,69.45
2018-03-20T20:11:57.031Z,69.06
2018-03-20T20:14:23.296Z,68.99
2018-03-20T20:16:49.564Z,69.04
2018-03-20T20:19:15.836Z,68.65
2018-03-20T20:21:42.108Z,68.80
2018-03-20T20:24:08.421Z,68.85
2018-03-20T20:26:34.681Z,68.54
2018-03-20T20:29:00.925Z,68.50
2018-03-20T20:31:27.206Z,68.36
2018-03-20T20:33:53.461Z,68.27
2018-03-20T20:36:19.736Z,67.95
2018-03-20T20:38:45.974Z,67.65
2018-03-20T20:41:12.464Z,67.39
2018-03-20T20:43:38.703Z,67.55
2018-03-20T20:46:05.338Z,67.65
2018-03-20T20:48:31.608Z,67.34
2018-03-20T20:50:57.826Z,67.48
2018-03-20T20:53:24.129Z,67.45
2018-03-20T20:55:50.582Z,67.32
2018-03-20T20:58:16.877Z,67.38
2018-03-20T21:00:43.152Z,67.52
2018-03-20T21:03:09.912Z,67.04
2018-03-20T21:05:37.187Z,66.84
2018-03-20T21:08:03.706Z,66.73
2018-03-20T21:10:30.155Z,66.44
2018-03-20T21:12:56.568Z,66.13
2018-03-20T21:15:22.856Z,65.75
2018-03-20T21:17:49.100Z,65.29
2018-03-20T21:20:15.500Z,65.17
2018-03-20T21:22:41.762Z,64.98
2018-03-20T21:25:08.037Z,64.68
2018-03-20T21:27:34.307Z,64.44
2018-03-20T21:30:00.560Z,63.85
2018-03-20T21:32:27.155Z,64.25
2018-03-20T21:34:53.382Z,63.95
2018-03-20T21:37:19.616Z,63.98
2018-03-20T21:39:46.030Z,63.82
2018-03-20T21:42:12.260Z,63.58
2018-03-20T21:44:38.779Z,63.43
2018-03-20T21:47:05.032Z,63.38
2018-03-20T21:49:31.300Z,63.03
2018-03-20T21:51:57.676Z,62.74
2018-03-20T21:54:23.939Z,62.52
2018-03-20T21:56:50.280Z,62.75
2018-03-20T21:59:16.524Z,62.61
2018-03-20T22:01:42.804Z,62.57
2018-03-20T22:04:09.334Z,61.77
2018-03-20T22:06:35.625Z,61.98
2018-03-20T22:09:01.929Z,62.21
2018-03-20T22:11:28.236Z,61.95
2018-03-20T22:13:54.455Z,61.67
2018-03-20T22:16:21.012Z,62.01
2018-03-20T22:18:47.267Z,62.25
2018-03-20T22:21:13.496Z,62.44
2018-03-20T22:23:39.858Z,62.18
2018-03-20T22:26:06.148Z,62.18
2018-03-20T22:28:32.569Z,62.41
2018-03-20T22:30:58.839Z,62.16
2018-03-20T22:33:25.097Z,62.44
2018-03-20T22:35:51.557Z,62.21
2018-03-20T22:38:17.832Z,62.20
2018-03-20T22:40:44.187Z,61.87
2018-03-20T22:43:10.476Z,61.84
2018-03-20T22:45:36.731Z,61.61
2018-03-20T22:48:03.180Z,61.87
2018-03-20T22:50:29.427Z,62.06
2018-03-20T22:52:55.661Z,62.05
2018-03-20T22:55:22.040Z,61.86
2018-03-20T22:57:48.272Z,61.57
2018-03-20T23:00:26.953Z,61.39
2018-03-20T23:02:53.206Z,62.18
2018-03-20T23:05:19.490Z,62.18
2018-03-20T23:07:45.876Z,62.00
2018-03-20T23:10:12.148Z,62.26
2018-03-20T23:12:38.520Z,62.14
2018-03-20T23:15:04.868Z,62.09
2018-03-20T23:17:31.140Z,61.99
2018-03-20T23:19:57.505Z,61.73
2018-03-20T23:22:23.771Z,61.70
2018-03-20T23:24:50.140Z,61.82
2018-03-20T23:27:16.424Z,61.69
2018-03-20T23:29:42.704Z,61.42
2018-03-20T23:32:09.285Z,61.35
2018-03-20T23:34:35.546Z,61.18
2018-03-20T23:37:01.829Z,60.65
2018-03-20T23:39:28.106Z,60.83
2018-03-20T23:41:54.380Z,61.07
2018-03-20T23:44:20.791Z,61.19
2018-03-20T23:46:47.037Z,61.51
2018-03-20T23:49:13.320Z,61.40
2018-03-20T23:51:39.685Z,61.14
2018-03-20T23:54:05.945Z,60.96
2018-03-20T23:56:32.270Z,60.56
2018-03-20T23:58:58.550Z,60.67
